TimeCDT,TemperatureF,Dew PointF,Humidity,Sea Level PressureIn,VisibilityMPH,Wind Direction,Wind SpeedMPH,Gust SpeedMPH,PrecipitationIn,Events,Conditions,WindDirDegrees,DateUTC
12:35 AM,53.6,48.2,82,29.86,3.0,Calm,Calm,-,N/A,,Haze,0,2012-10-02 05:35:00
12:55 AM,53.6,48.2,82,29.86,9.0,NW,3.5,-,N/A,,Unknown,310,2012-10-02 05:55:00
1:15 AM,51.8,48.2,88,29.86,2.0,Calm,Calm,-,N/A,,Mist,0,2012-10-02 06:15:00
1:35 AM,51.8,48.2,88,29.86,9.0,Calm,Calm,-,N/A,,Unknown,0,2012-10-02 06:35:00
1:55 AM,51.8,48.2,88,29.86,8.0,Calm,Calm,-,N/A,,Unknown,0,2012-10-02 06:55:00
2:15 AM,51.8,48.2,88,29.87,9.0,NW,4.6,-,N/A,,Unknown,320,2012-10-02 07:15:00
2:35 AM,53.6,48.2,82,29.87,9.0,Calm,Calm,-,N/A,,Unknown,0,2012-10-02 07:35:00
3:15 AM,51.8,46.4,82,29.87,9.0,NW,4.6,-,N/A,,Unknown,320,2012-10-02 08:15:00
3:35 AM,51.8,44.6,76,29.87,8.0,NW,4.6,-,N/A,,Unknown,320,2012-10-02 08:35:00
3:55 AM,51.8,44.6,76,29.87,9.0,NNW,6.9,-,N/A,,Unknown,330,2012-10-02 08:55:00
4:15 AM,51.8,44.6,76,29.87,9.0,NNW,5.8,-,N/A,,Unknown,330,2012-10-02 09:15:00
4:35 AM,51.8,44.6,76,29.87,8.0,NNW,5.8,-,N/A,,Unknown,330,2012-10-02 09:35:00
4:55 AM,51.8,44.6,76,29.88,9.0,NNW,4.6,-,N/A,,Unknown,330,2012-10-02 09:55:00
5:15 AM,51.8,44.6,76,29.88,9.0,NNW,5.8,-,N/A,,Unknown,340,2012-10-02 10:15:00
5:55 AM,51.8,42.8,71,29.88,8.0,Calm,Calm,-,N/A,,Unknown,0,2012-10-02 10:55:00
6:15 AM,48.2,42.8,82,29.89,8.0,Calm,Calm,-,N/A,,Unknown,0,2012-10-02 11:15:00
6:35 AM,51.8,42.8,71,29.90,9.0,Calm,Calm,-,N/A,,Unknown,0,2012-10-02 11:35:00
6:55 AM,48.2,42.8,82,29.90,9.0,Calm,Calm,-,N/A,,Unknown,0,2012-10-02 11:55:00
7:15 AM,48.2,42.8,82,29.91,9.0,NW,5.8,-,N/A,,Unknown,310,2012-10-02 12:15:00
7:35 AM,48.2,42.8,82,29.91,8.0,NW,5.8,-,N/A,,Unknown,320,2012-10-02 12:35:00
7:55 AM,50.0,44.6,82,29.91,8.0,NW,4.6,-,N/A,,Unknown,310,2012-10-02 12:55:00
8:15 AM,51.8,44.6,76,29.92,7.0,Calm,Calm,-,N/A,,Unknown,0,2012-10-02 13:15:00
8:55 AM,55.4,46.4,72,29.92,8.0,NNW,5.8,-,N/A,,Unknown,340,2012-10-02 13:55:00
9:15 AM,57.2,46.4,67,29.92,7.0,North,6.9,-,N/A,,Unknown,360,2012-10-02 14:15:00
9:35 AM,59.0,48.2,67,29.92,5.0,NNE,6.9,-,N/A,,Haze,20,2012-10-02 14:35:00
9:55 AM,60.8,48.2,63,29.93,3.0,North,4.6,-,N/A,,Haze,10,2012-10-02 14:55:00
10:15 AM,60.8,48.2,63,29.93,5.0,NNW,6.9,-,N/A,,Haze,340,2012-10-02 15:15:00
11:15 AM,64.4,50.0,59,29.94,7.0,NW,9.2,-,N/A,,Unknown,310,2012-10-02 16:15:00
11:35 AM,64.4,51.8,64,29.94,7.0,NW,8.1,-,N/A,,Unknown,310,2012-10-02 16:35:00
11:55 AM,66.2,51.8,60,29.93,7.0,NNW,8.1,-,N/A,,Unknown,330,2012-10-02 16:55:00
12:15 PM,-9999,-9999,N/A,29.93,6.0,North,4.6,-,N/A,,Haze,360,2012-10-02 17:15:00
12:35 PM,68.0,51.8,56,29.92,5.0,NNW,6.9,-,N/A,,Haze,330,2012-10-02 17:35:00
12:55 PM,-9999,-9999,N/A,-9999,7.0,North,-9999.0,-,N/A,,Unknown,0,2012-10-02 17:55:00
1:15 PM,69.8,53.6,56,29.91,7.0,NNW,3.5,-,N/A,,Unknown,340,2012-10-02 18:15:00
1:35 PM,69.8,53.6,56,29.90,7.0,WNW,5.8,-,N/A,,Unknown,300,2012-10-02 18:35:00
1:55 PM,71.6,51.8,50,29.89,5.0,NW,5.8,-,N/A,,Haze,320,2012-10-02 18:55:00
2:15 PM,71.6,53.6,53,29.88,6.0,NW,4.6,-,N/A,,Haze,320,2012-10-02 19:15:00
2:35 PM,73.4,53.6,50,29.88,7.0,NNW,6.9,-,N/A,,Unknown,340,2012-10-02 19:35:00
2:55 PM,-9999,-9999,N/A,29.87,3.0,NW,5.8,-,N/A,,Mist,310,2012-10-02 19:55:00
3:15 PM,73.4,53.6,50,29.87,7.0,North,8.1,-,N/A,,Unknown,360,2012-10-02 20:15:00
3:35 PM,73.4,51.8,47,29.88,8.0,NNW,6.9,-,N/A,,Unknown,340,2012-10-02 20:35:00
3:55 PM,73.4,51.8,47,29.87,7.0,WNW,4.6,-,N/A,,Unknown,290,2012-10-02 20:55:00
4:15 PM,73.4,53.6,50,29.87,7.0,Calm,Calm,-,N/A,,Unknown,0,2012-10-02 21:15:00
4:55 PM,73.4,53.6,50,29.87,-9999.0,NNW,5.8,-,N/A,,Unknown,330,2012-10-02 21:55:00
5:15 PM,-9999,-9999,N/A,-9999,8.0,North,-9999.0,-,N/A,,Unknown,0,2012-10-02 22:15:00
5:35 PM,71.6,53.6,53,29.87,7.0,NW,4.6,-,N/A,,Unknown,310,2012-10-02 22:35:00
5:55 PM,71.6,53.6,53,29.87,8.0,NW,5.8,-,N/A,,Unknown,310,2012-10-02 22:55:00
6:15 PM,69.8,53.6,56,29.88,7.0,Calm,Calm,-,N/A,,Unknown,0,2012-10-02 23:15:00
6:35 PM,69.8,53.6,56,29.88,8.0,Calm,Calm,-,N/A,,Unknown,0,2012-10-02 23:35:00
6:55 PM,66.2,53.6,64,29.88,8.0,Calm,Calm,-,N/A,,Unknown,0,2012-10-02 23:55:00
7:15 PM,66.2,53.6,64,29.88,9.0,Calm,Calm,-,N/A,,Unknown,0,2012-10-03 00:15:00
7:35 PM,60.8,53.6,77,29.88,9.0,Calm,Calm,-,N/A,,Unknown,0,2012-10-03 00:35:00
7:55 PM,60.8,53.6,77,29.89,9.0,Calm,Calm,-,N/A,,Unknown,0,2012-10-03 00:55:00
8:15 PM,60.8,53.6,77,29.89,-9999.0,Calm,Calm,-,N/A,,Unknown,0,2012-10-03 01:15:00
8:35 PM,59.0,53.6,82,29.89,8.0,Calm,Calm,-,N/A,,Unknown,0,2012-10-03 01:35:00
8:55 PM,57.2,53.6,88,29.90,8.0,Calm,Calm,-,N/A,,Unknown,0,2012-10-03 01:55:00
9:15 PM,57.2,53.6,88,29.90,8.0,Calm,Calm,-,N/A,,Unknown,0,2012-10-03 02:15:00
9:35 PM,57.2,55.4,94,29.91,8.0,Calm,Calm,-,N/A,,Unknown,0,2012-10-03 02:35:00
9:55 PM,55.4,53.6,94,29.91,7.0,Calm,Calm,-,N/A,,Unknown,0,2012-10-03 02:55:00
10:15 PM,55.4,53.6,94,29.92,7.0,Calm,Calm,-,N/A,,Unknown,0,2012-10-03 03:15:00
10:35 PM,55.4,53.6,94,29.92,7.0,Calm,Calm,-,N/A,,Unknown,0,2012-10-03 03:35:00
10:55 PM,53.6,53.6,100,29.92,7.0,Calm,Calm,-,N/A,,Unknown,0,2012-10-03 03:55:00
11:15 PM,-9999,-9999,N/A,-9999,6.0,North,-9999.0,-,N/A,,Unknown,0,2012-10-03 04:15:00
11:35 PM,-9999,-9999,N/A,29.91,-9999.0,Calm,Calm,-,N/A,,Unknown,0,2012-10-03 04:35:00
11:55 PM,53.6,53.6,100,29.92,2.5,Calm,Calm,-,N/A,,Mist,0,2012-10-03 04:55:00